Time;durP1;ratioP1;P1;durP2;ratioP2;P2;SDS_P1;SDS_P2;PMS_P1;PMS_P2;Temp;Humidity;BMP_temperature;BMP_pressure;BME280_temperature;BME280_humidity;BME280_pressure;Samples;Min_cycle;Max_cycle;Signal;HPM_P1;HPM_P2
2022/10/21 00:02:02;;;;;;;23.95;14.30;;;;;;;14.73;86.60;100722.41;4901737;29;20049;-94
2022/10/21 00:04:27;;;;;;;21.15;13.95;;;;;;;14.75;86.56;100728.50;4882450;29;20417;-93
2022/10/21 00:06:53;;;;;;;22.92;13.85;;;;;;;14.72;86.59;100718.88;4883869;29;20389;-95
2022/10/21 00:09:18;;;;;;;19.55;13.80;;;;;;;14.68;86.86;100705.84;4881896;29;20040;-94
2022/10/21 00:11:44;;;;;;;20.48;12.95;;;;;;;14.74;86.45;100705.50;4882514;29;20071;-94
2022/10/21 00:14:09;;;;;;;20.20;14.52;;;;;;;14.71;86.74;100711.00;4882349;29;20029;-94
2022/10/21 00:16:34;;;;;;;21.63;13.45;;;;;;;14.67;86.43;100702.34;4881993;29;20029;-95
2022/10/21 00:19:00;;;;;;;24.33;14.02;;;;;;;14.71;86.28;100713.66;4881989;29;20039;-94
2022/10/21 00:21:25;;;;;;;26.40;14.43;;;;;;;14.70;86.41;100712.81;4885096;29;20036;-93
2022/10/21 00:23:51;;;;;;;24.52;14.63;;;;;;;14.64;85.79;100704.31;4881820;29;20035;-94
2022/10/21 00:26:17;;;;;;;20.73;13.43;;;;;;;14.62;86.02;100706.22;4881766;29;20107;-93
2022/10/21 00:28:42;;;;;;;21.90;14.05;;;;;;;14.60;85.99;100706.31;4880917;29;20029;-94
2022/10/21 00:31:09;;;;;;;20.33;13.95;;;;;;;14.52;85.94;100700.59;4880907;29;20084;-93
2022/10/21 00:33:35;;;;;;;18.15;12.38;;;;;;;14.45;85.60;100697.38;4880666;29;20036;-94
2022/10/21 00:36:01;;;;;;;23.60;13.50;;;;;;;14.39;86.01;100694.22;4861373;29;178247;-93
2022/10/21 00:38:28;;;;;;;22.58;13.27;;;;;;;14.37;85.99;100690.81;4901361;29;20123;-94
2022/10/21 00:40:54;;;;;;;21.75;14.20;;;;;;;14.39;87.01;100695.09;4918217;29;20024;-94
2022/10/21 00:43:19;;;;;;;24.27;13.43;;;;;;;14.37;87.19;100693.47;4903161;29;20035;-94
2022/10/21 00:45:49;;;;;;;21.95;14.20;;;;;;;14.36;87.70;100700.59;4903998;29;20072;-94
2022/10/21 00:48:30;;;;;;;23.13;14.18;;;;;;;14.46;87.40;100715.06;4909674;29;20067;-95
2022/10/21 00:51:00;;;;;;;20.30;13.07;;;;;;;14.42;87.65;100710.03;4910015;29;20126;-95
2022/10/21 00:53:26;;;;;;;25.77;13.48;;;;;;;14.40;87.59;100691.47;4895160;29;20028;-94
2022/10/21 00:55:57;;;;;;;21.48;13.15;;;;;;;14.40;87.31;100691.47;4914812;29;20071;-94
2022/10/21 00:58:25;;;;;;;21.77;13.60;;;;;;;14.38;87.71;100685.41;4941659;29;20012;-94
2022/10/21 01:00:54;;;;;;;19.50;12.98;;;;;;;14.39;87.70;100683.59;4934832;29;20028;-94
2022/10/21 01:03:22;;;;;;;21.70;14.80;;;;;;;14.40;88.03;100682.66;4906620;29;20020;-94
2022/10/21 01:05:49;;;;;;;23.48;14.25;;;;;;;14.41;87.80;100676.38;4905542;29;20123;-94
2022/10/21 01:08:14;;;;;;;17.65;13.13;;;;;;;14.43;87.76;100677.16;4906471;29;20052;-95
2022/10/21 01:10:40;;;;;;;18.33;13.20;;;;;;;14.43;88.06;100669.19;4906573;29;20017;-94
2022/10/21 01:13:09;;;;;;;22.77;14.32;;;;;;;14.45;87.81;100675.25;4906269;29;20037;-95
2022/10/21 01:16:03;;;;;;;21.98;13.43;;;;;;;14.44;88.45;100674.41;4916379;29;20125;-94
2022/10/21 01:18:35;;;;;;;20.55;13.38;;;;;;;14.34;87.63;100681.22;4889130;29;20027;-95
2022/10/21 01:21:32;;;;;;;23.92;12.10;;;;;;;14.33;87.52;100678.66;4889229;29;20039;-94
2022/10/21 01:24:41;;;;;;;22.05;13.27;;;;;;;14.27;87.51;100672.75;4888803;29;20024;-95
2022/10/21 01:27:19;;;;;;;23.85;13.07;;;;;;;14.22;87.66;100656.19;4886402;29;20115;-94
2022/10/21 01:30:07;;;;;;;22.92;12.30;;;;;;;14.16;87.28;100637.91;4887444;29;20036;-95
2022/10/21 01:32:32;;;;;;;20.48;13.65;;;;;;;14.16;87.83;100651.22;4885311;29;20025;-94
2022/10/21 01:35:19;;;;;;;18.25;13.32;;;;;;;14.14;87.43;100641.63;4885676;29;20409;-94
2022/10/21 01:38:00;;;;;;;21.25;13.43;;;;;;;14.08;88.24;100645.47;4913658;29;20064;-94
2022/10/21 01:40:34;;;;;;;17.37;13.00;;;;;;;14.00;87.72;100631.78;4904289;29;20453;-94
2022/10/21 01:43:07;;;;;;;23.13;13.60;;;;;;;13.97;87.83;100631.97;4903920;29;20027;-93
2022/10/21 01:45:41;;;;;;;20.83;12.63;;;;;;;13.91;87.72;100619.91;4903144;29;20024;-94
2022/10/21 01:48:12;;;;;;;27.23;14.35;;;;;;;13.90;87.93;100622.66;4920581;29;20028;-94
2022/10/21 01:50:47;;;;;;;25.30;14.05;;;;;;;13.91;88.56;100619.03;4903077;29;20027;-94
2022/10/21 01:53:14;;;;;;;18.42;12.43;;;;;;;13.83;87.93;100616.81;4919912;29;20072;-93
2022/10/21 01:55:42;;;;;;;19.83;13.18;;;;;;;13.76;87.90;100607.50;4920169;29;20031;-94
2022/10/21 01:58:14;;;;;;;21.88;13.77;;;;;;;13.69;87.74;100604.31;4920252;29;20483;-94
2022/10/21 02:00:41;;;;;;;20.17;12.52;;;;;;;13.74;87.73;100612.03;4920178;29;20086;-94
2022/10/21 02:03:10;;;;;;;21.45;13.20;;;;;;;13.66;88.12;100599.19;4920476;29;20024;-94
2022/10/21 02:05:36;;;;;;;20.30;12.73;;;;;;;13.67;87.77;100598.25;4903036;29;20084;-94
2022/10/21 02:08:03;;;;;;;23.08;13.30;;;;;;;13.65;88.63;100604.56;4903261;29;20100;-94
2022/10/21 02:10:33;;;;;;;22.13;13.25;;;;;;;13.58;88.86;100585.47;4903880;29;20083;-94
2022/10/21 02:13:03;;;;;;;21.45;12.73;;;;;;;13.58;88.64;100590.78;4903700;29;20024;-94
2022/10/21 02:15:31;;;;;;;24.02;13.50;;;;;;;13.64;88.52;100601.06;4903524;29;20036;-94
2022/10/21 02:18:02;;;;;;;21.45;13.57;;;;;;;13.65;88.74;100601.91;4887975;29;20484;-93
2022/10/21 02:20:33;;;;;;;21.30;13.40;;;;;;;13.66;89.05;100583.25;4902511;29;20087;-94
2022/10/21 02:22:59;;;;;;;21.30;13.02;;;;;;;13.58;88.48;100568.69;4902337;29;20020;-94
2022/10/21 02:25:30;;;;;;;21.55;12.77;;;;;;;13.52;88.62;100569.88;4919462;29;20039;-94
2022/10/21 02:27:56;;;;;;;23.10;13.02;;;;;;;13.51;88.87;100573.47;4902455;29;20028;-93
2022/10/21 02:30:21;;;;;;;17.88;13.60;;;;;;;13.47;88.37;100567.47;4902303;29;20511;-95
2022/10/21 02:32:55;;;;;;;21.95;13.55;;;;;;;13.56;88.63;100583.84;4902286;29;20092;-94
2022/10/21 02:35:26;;;;;;;17.48;13.55;;;;;;;13.58;88.81;100597.91;4902152;29;20084;-93
2022/10/21 02:38:29;;;;;;;18.83;12.73;;;;;;;13.59;88.54;100597.81;4902863;29;20028;-94
2022/10/21 02:41:02;;;;;;;;;;;;;;;13.67;87.35;100598.25;4883868;29;20032;-94
2022/10/21 02:43:31;;;;;;;18.73;12.18;;;;;;;13.54;88.49;100589.25;4883908;29;19917;-94
2022/10/21 02:46:06;;;;;;;18.73;12.45;;;;;;;13.51;88.41;100581.44;4900444;29;20032;-93
2022/10/21 02:48:33;;;;;;;21.17;14.15;;;;;;;13.56;89.54;100592.66;4883159;29;20033;-93
2022/10/21 02:50:59;;;;;;;18.95;12.88;;;;;;;13.54;89.14;100594.56;4882941;29;20061;-94
2022/10/21 02:53:24;;;;;;;20.05;13.10;;;;;;;13.53;88.99;100587.53;4883064;29;20033;-94
2022/10/21 02:55:49;;;;;;;18.98;13.32;;;;;;;13.47;88.68;100579.91;4899901;29;20481;-94
2022/10/21 02:58:15;;;;;;;21.92;12.43;;;;;;;13.44;88.28;100577.44;4883388;29;20063;-94
2022/10/21 03:00:40;;;;;;;17.02;11.70;;;;;;;13.33;87.28;100569.19;4905325;29;20063;-93
2022/10/21 03:03:05;;;;;;;23.08;12.00;;;;;;;13.34;88.61;100573.59;4901835;29;20027;-93
2022/10/21 03:05:31;;;;;;;19.08;12.13;;;;;;;13.32;88.13;100571.00;4901449;29;20035;-94
2022/10/21 03:07:56;;;;;;;24.30;12.57;;;;;;;13.29;88.75;100568.53;4919115;29;20111;-94
2022/10/21 03:10:21;;;;;;;19.08;11.48;;;;;;;13.24;88.82;100571.44;4918523;29;20038;-94
2022/10/21 03:12:48;;;;;;;16.25;11.80;;;;;;;13.26;88.09;100585.47;4901517;29;20028;-94
2022/10/21 03:15:13;;;;;;;19.45;12.02;;;;;;;13.20;88.70;100566.34;4902155;29;20036;-94
2022/10/21 03:17:39;;;;;;;22.60;12.13;;;;;;;13.25;89.16;100573.16;4901990;29;20028;-94
2022/10/21 03:20:05;;;;;;;18.08;11.70;;;;;;;13.19;89.34;100561.97;4901460;29;20023;-93
2022/10/21 03:22:31;;;;;;;16.08;10.65;;;;;;;13.23;89.20;100561.75;4901834;29;20395;-94
2022/10/21 03:24:57;;;;;;;18.25;11.77;;;;;;;13.24;88.95;100576.75;4902725;29;20020;-94
2022/10/21 03:27:22;;;;;;;20.92;11.02;;;;;;;13.17;89.01;100563.88;4918893;29;20028;-94
2022/10/21 03:29:47;;;;;;;21.02;11.13;;;;;;;13.17;88.83;100563.88;4891595;29;20106;-94
2022/10/21 03:32:13;;;;;;;23.92;12.85;;;;;;;13.21;88.85;100576.03;4883154;29;20025;-95
2022/10/21 03:34:38;;;;;;;20.98;11.63;;;;;;;13.14;89.40;100572.84;4883246;29;20141;-95
2022/10/21 03:37:03;;;;;;;17.02;11.45;;;;;;;13.10;89.28;100563.31;4883179;29;20392;-94
2022/10/21 03:39:28;;;;;;;15.30;10.77;;;;;;;13.10;89.06;100573.09;4892434;29;20024;-96
2022/10/21 03:41:54;;;;;;;19.17;10.23;;;;;;;13.13;89.54;100563.16;4902313;29;20024;-93
2022/10/21 03:44:19;;;;;;;16.58;10.35;;;;;;;13.12;89.39;100556.16;4902033;29;20502;-96
2022/10/21 03:46:44;;;;;;;17.35;9.57;;;;;;;13.14;89.00;100570.19;4902087;29;20024;-94
2022/10/21 03:49:10;;;;;;;14.50;10.02;;;;;;;13.09;89.14;100556.31;4918538;29;20050;-94
2022/10/21 03:51:36;;;;;;;14.13;10.00;;;;;;;13.08;89.00;100554.59;4901664;29;20047;-94
2022/10/21 03:54:01;;;;;;;15.00;8.95;;;;;;;13.09;89.30;100563.44;4901932;29;20035;-95
2022/10/21 03:56:26;;;;;;;15.27;8.88;;;;;;;13.08;89.49;100559.91;4919024;29;20036;-96
2022/10/21 03:58:52;;;;;;;13.48;8.50;;;;;;;13.06;89.35;100548.53;4901815;29;20031;-94
2022/10/21 04:01:17;;;;;;;14.88;8.68;;;;;;;13.03;88.84;100538.94;4901123;29;20028;-94
2022/10/21 04:03:42;;;;;;;13.70;8.38;;;;;;;13.08;88.98;100549.28;4917849;29;20488;-94
2022/10/21 04:06:08;;;;;;;12.07;8.32;;;;;;;13.06;88.63;100553.00;4900797;29;20168;-94
2022/10/21 04:08:33;;;;;;;17.38;9.80;;;;;;;12.99;88.77;100555.97;4901021;29;20028;-94
2022/10/21 04:10:59;;;;;;;16.77;9.32;;;;;;;12.98;89.18;100553.41;4893133;29;20029;-94
2022/10/21 04:13:25;;;;;;;10.50;8.15;;;;;;;12.96;89.09;100549.97;4899243;29;20077;-94
2022/10/21 04:15:55;;;;;;;15.85;8.23;;;;;;;12.95;88.64;100556.22;4900353;29;20030;-94
2022/10/21 04:18:20;;;;;;;14.57;8.50;;;;;;;12.97;89.35;100563.16;4882442;29;20060;-94
2022/10/21 04:20:46;;;;;;;14.70;8.85;;;;;;;12.98;89.07;100558.72;4882123;29;20067;-94
2022/10/21 04:23:11;;;;;;;12.20;8.35;;;;;;;12.91;88.48;100554.66;4882407;29;20055;-94
2022/10/21 04:25:36;;;;;;;14.57;7.93;;;;;;;12.93;88.78;100563.41;4881599;29;20032;-94
2022/10/21 04:28:02;;;;;;;14.75;8.30;;;;;;;12.85;88.83;100555.84;4881687;29;20492;-93
2022/10/21 04:30:27;;;;;;;15.07;8.80;;;;;;;12.86;88.21;100556.72;4881813;29;20028;-94
2022/10/21 04:32:52;;;;;;;12.35;8.23;;;;;;;12.80;88.28;100551.75;4881592;29;20020;-94
2022/10/21 04:35:18;;;;;;;12.38;8.43;;;;;;;12.77;88.56;100558.91;4881867;29;20143;-94
2022/10/21 04:37:43;;;;;;;10.65;7.43;;;;;;;12.76;87.82;100567.81;4882462;29;20108;-94
2022/10/21 04:40:09;;;;;;;13.48;8.07;;;;;;;12.71;88.24;100561.91;4898841;29;20477;-94
2022/10/21 04:42:34;;;;;;;16.48;8.43;;;;;;;12.65;87.60;100567.53;4882185;29;20036;-94
2022/10/21 04:45:00;;;;;;;10.57;7.82;;;;;;;12.63;88.12;100564.09;4882657;29;20393;-95
2022/10/21 04:47:25;;;;;;;11.30;7.57;;;;;;;12.58;87.71;100567.94;4881679;29;20028;-93
2022/10/21 04:49:50;;;;;;;15.02;8.35;;;;;;;12.60;88.47;100577.53;4883431;29;20085;-94
2022/10/21 04:52:16;;;;;;;10.52;7.63;;;;;;;12.60;88.68;100576.69;4886131;29;20033;-94
2022/10/21 04:54:41;;;;;;;10.55;7.00;;;;;;;12.59;87.86;100575.84;4885701;29;20421;-94
2022/10/21 04:57:06;;;;;;;11.38;7.50;;;;;;;12.56;87.40;100565.38;4885629;29;20039;-94
2022/10/21 04:59:32;;;;;;;14.60;7.50;;;;;;;12.57;88.28;100564.44;4902904;29;20072;-94
2022/10/21 05:01:57;;;;;;;11.02;7.55;;;;;;;12.54;88.73;100553.97;4902138;29;20528;-94
2022/10/21 05:04:23;;;;;;;12.73;6.97;;;;;;;12.58;88.70;100559.97;4884939;29;20028;-95
2022/10/21 05:06:48;;;;;;;12.15;6.95;;;;;;;12.58;88.63;100565.28;4885688;29;20033;-94
2022/10/21 05:09:13;;;;;;;13.13;7.38;;;;;;;12.51;88.68;100548.88;4881527;29;20099;-94
2022/10/21 05:11:39;;;;;;;11.32;6.65;;;;;;;12.61;88.50;100559.84;4883614;29;20469;-94
2022/10/21 05:14:04;;;;;;;8.40;5.88;;;;;;;12.59;88.29;100559.94;4866732;29;20384;-94
2022/10/21 05:16:29;;;;;;;10.02;6.85;;;;;;;12.52;87.06;100555.88;4866363;29;20446;-93
2022/10/21 05:18:55;;;;;;;10.20;6.22;;;;;;;12.42;87.02;100552.84;4866323;29;20025;-93
2022/10/21 05:21:20;;;;;;;12.70;6.22;;;;;;;12.46;87.55;100556.19;4876478;29;20123;-93
2022/10/21 05:23:45;;;;;;;12.88;6.28;;;;;;;12.44;87.48;100558.06;4884790;29;20146;-93
2022/10/21 05:26:11;;;;;;;13.73;6.55;;;;;;;12.40;87.29;100551.19;4884554;29;20024;-94
2022/10/21 05:28:36;;;;;;;11.75;6.32;;;;;;;12.38;87.48;100542.47;4884656;29;20020;-94
2022/10/21 05:31:02;;;;;;;10.93;6.30;;;;;;;12.32;86.94;100542.81;4884804;29;20408;-94
2022/10/21 05:33:27;;;;;;;12.38;5.80;;;;;;;12.24;86.50;100535.25;4884464;29;20457;-93
2022/10/21 05:36:03;;;;;;;10.48;5.75;;;;;;;12.26;87.35;100541.31;4901278;29;20049;-93
2022/10/21 05:38:29;;;;;;;10.63;5.70;;;;;;;12.19;87.37;100535.50;4901886;29;20416;-94
2022/10/21 05:40:55;;;;;;;9.05;5.50;;;;;;;12.30;88.15;100534.91;4885051;29;20032;-93
2022/10/21 05:43:21;;;;;;;11.48;6.55;;;;;;;12.29;88.70;100529.72;4884379;29;20388;-93
2022/10/21 05:45:46;;;;;;;13.85;6.43;;;;;;;12.31;88.41;100525.16;4884342;29;20488;-95
2022/10/21 05:48:11;;;;;;;11.60;6.45;;;;;;;12.36;88.88;100521.38;4901246;29;20039;-94
2022/10/21 05:50:37;;;;;;;10.75;6.68;;;;;;;12.38;89.27;100521.28;4901096;29;20033;-93
2022/10/21 05:53:02;;;;;;;8.85;5.65;;;;;;;12.40;89.05;100509.66;4901051;29;20065;-93
2022/10/21 05:55:28;;;;;;;12.73;6.90;;;;;;;12.48;88.90;100522.50;4884126;29;20024;-94
2022/10/21 05:57:53;;;;;;;8.23;6.35;;;;;;;12.42;88.67;100509.56;4884288;29;20028;-94
2022/10/21 06:00:19;;;;;;;10.07;6.40;;;;;;;12.45;88.42;100514.69;4884183;29;20025;-93
2022/10/21 06:02:44;;;;;;;11.85;6.10;;;;;;;12.48;88.74;100523.34;4884079;29;20088;-94
2022/10/21 06:05:09;;;;;;;8.88;6.07;;;;;;;12.49;88.66;100524.19;4883953;29;20028;-94
2022/10/21 06:07:35;;;;;;;10.45;6.13;;;;;;;12.49;88.27;100527.72;4884171;29;20036;-95
2022/10/21 06:10:01;;;;;;;10.27;6.03;;;;;;;12.51;88.39;100512.59;4884217;29;20032;-94
2022/10/21 06:12:26;;;;;;;8.90;5.68;;;;;;;12.47;87.59;100513.69;4900823;29;20029;-94
2022/10/21 06:14:51;;;;;;;9.25;6.05;;;;;;;12.51;88.58;100512.59;4900889;29;20021;-93
2022/10/21 06:17:17;;;;;;;11.88;5.95;;;;;;;12.50;88.51;100518.00;4883721;29;20036;-94
2022/10/21 06:19:42;;;;;;;9.90;5.72;;;;;;;12.46;88.06;100511.13;4883843;29;20028;-93
2022/10/21 06:22:07;;;;;;;11.43;6.65;;;;;;;12.44;87.99;100505.88;4883588;29;20123;-93
2022/10/21 06:24:33;;;;;;;10.57;6.55;;;;;;;12.45;88.86;100507.63;4900474;29;20064;-94
2022/10/21 06:26:58;;;;;;;9.50;6.75;;;;;;;12.50;88.48;100516.19;4900452;29;20547;-94
2022/10/21 06:29:24;;;;;;;11.55;6.78;;;;;;;12.52;88.63;100518.75;4883632;29;20036;-94
2022/10/21 06:31:49;;;;;;;14.00;8.00;;;;;;;12.49;88.48;100511.78;4883567;29;20088;-94
2022/10/21 06:34:15;;;;;;;10.18;6.57;;;;;;;12.54;88.81;100508.03;4883271;29;20043;-94
2022/10/21 06:36:40;;;;;;;15.10;6.78;;;;;;;12.58;88.50;100520.22;4883688;29;20075;-94
2022/10/21 06:39:07;;;;;;;9.00;5.97;;;;;;;12.54;88.03;100508.03;4900389;29;20029;-94
2022/10/21 06:41:32;;;;;;;10.43;6.50;;;;;;;12.53;88.87;100509.84;4883526;29;20021;-93
2022/10/21 06:43:58;;;;;;;13.82;6.93;;;;;;;12.61;88.83;100520.06;4883813;29;20025;-95
2022/10/21 06:46:23;;;;;;;9.95;6.63;;;;;;;12.69;88.86;100539.06;4883678;29;20088;-93
2022/10/21 06:48:49;;;;;;;10.90;6.60;;;;;;;12.66;88.89;100537.44;4883645;29;20032;-95
2022/10/21 06:51:21;;;;;;;8.55;6.15;;;;;;;12.75;88.97;100552.84;4883521;29;20088;-94
2022/10/21 06:53:51;;;;;;;9.32;5.50;;;;;;;12.77;89.26;100547.44;4883086;29;20503;-94
2022/10/21 06:56:17;;;;;;;9.20;5.95;;;;;;;12.81;89.26;100556.09;4883276;29;20031;-94
2022/10/21 06:58:46;;;;;;;9.80;6.05;;;;;;;12.83;89.08;100552.44;4883089;29;20025;-94
2022/10/21 07:01:15;;;;;;;10.10;6.20;;;;;;;12.92;89.03;100569.66;4892867;29;20020;-94
2022/10/21 07:03:40;;;;;;;7.60;5.25;;;;;;;12.92;89.10;100564.38;4901732;29;20391;-94
2022/10/21 07:06:05;;;;;;;8.90;5.30;;;;;;;13.01;88.90;100574.47;4918600;29;20102;-94
2022/10/21 07:08:32;;;;;;;7.60;5.22;;;;;;;13.06;89.04;100577.72;4901686;29;20523;-94
2022/10/21 07:10:58;;;;;;;10.07;5.07;;;;;;;13.09;89.26;100588.16;4901672;29;20443;-94
2022/10/21 07:13:24;;;;;;;8.10;5.18;;;;;;;13.12;89.07;100585.34;4900820;29;20024;-94
2022/10/21 07:16:22;;;;;;;8.93;5.22;;;;;;;13.19;89.09;100584.06;4902494;29;20028;-94
2022/10/21 07:18:47;;;;;;;9.20;4.82;;;;;;;13.30;89.29;100591.47;4918599;29;20099;-94
2022/10/21 07:21:16;;;;;;;10.38;5.60;;;;;;;13.34;89.31;100590.38;4918273;29;20028;-93
2022/10/21 07:23:43;;;;;;;8.27;5.30;;;;;;;13.40;89.40;100589.16;4901326;29;20062;-94
2022/10/21 07:26:09;;;;;;;10.88;5.55;;;;;;;13.42;89.34;100585.47;4918203;29;20038;-94
2022/10/21 07:28:34;;;;;;;8.43;5.55;;;;;;;13.53;88.96;100598.16;4918171;29;20028;-95
2022/10/21 07:31:00;;;;;;;9.80;5.53;;;;;;;13.59;89.79;100597.81;4901159;29;20168;-94
2022/10/21 07:33:26;;;;;;;14.07;5.05;;;;;;;13.58;89.30;100587.28;4917916;29;20107;-94
2022/10/21 07:35:51;;;;;;;11.07;5.80;;;;;;;13.66;88.86;100593.88;4918181;29;20040;-93
2022/10/21 07:38:17;;;;;;;11.30;5.47;;;;;;;13.70;88.48;100589.22;4918213;29;20039;-93
2022/10/21 07:40:43;;;;;;;11.95;6.45;;;;;;;13.75;88.59;100598.63;4900913;29;20503;-94
2022/10/21 07:43:09;;;;;;;11.55;6.03;;;;;;;13.85;89.42;100600.78;4900854;29;20028;-93
2022/10/21 07:45:41;;;;;;;12.80;6.70;;;;;;;13.88;89.58;100600.59;4918132;29;20035;-93
2022/10/21 07:48:08;;;;;;;11.80;6.38;;;;;;;13.92;88.83;100597.69;4900906;29;20110;-94
2022/10/21 07:50:33;;;;;;;12.75;6.88;;;;;;;13.95;88.26;100607.28;4914111;29;20043;-94
2022/10/21 07:53:00;;;;;;;9.40;6.07;;;;;;;13.96;87.57;100611.66;4884534;29;20033;-94
2022/10/21 07:55:25;;;;;;;13.45;7.20;;;;;;;14.01;88.01;100617.56;4888021;29;20100;-94
2022/10/21 07:57:50;;;;;;;13.20;7.78;;;;;;;14.09;87.77;100617.97;4887121;29;20036;-94
2022/10/21 08:00:16;;;;;;;11.35;7.25;;;;;;;14.15;87.82;100609.63;4888050;29;20037;-95
2022/10/21 08:02:41;;;;;;;10.07;7.30;;;;;;;14.18;87.27;100611.28;4892242;29;20023;-92
2022/10/21 08:05:07;;;;;;;14.73;7.78;;;;;;;14.21;87.63;100606.59;4906869;29;20023;-94
2022/10/21 08:07:33;;;;;;;12.98;7.20;;;;;;;14.28;87.33;100615.09;4907259;29;20041;-94
2022/10/21 08:09:59;;;;;;;13.05;7.30;;;;;;;14.24;87.29;100617.06;4923316;29;20015;-94
2022/10/21 08:12:24;;;;;;;12.43;7.25;;;;;;;14.29;87.28;100614.13;4923761;29;20028;-94
2022/10/21 08:14:50;;;;;;;11.60;7.05;;;;;;;14.37;87.59;100608.38;4925310;29;20013;-93
2022/10/21 08:17:16;;;;;;;12.63;7.75;;;;;;;14.30;87.51;100598.06;4925524;29;20020;-94
2022/10/21 08:19:41;;;;;;;13.38;7.50;;;;;;;14.35;87.50;100596.94;4926041;29;20019;-93
2022/10/21 08:22:07;;;;;;;10.27;7.47;;;;;;;14.34;87.12;100600.56;4920377;29;20021;-94
2022/10/21 08:24:33;;;;;;;13.10;6.90;;;;;;;14.30;87.43;100600.75;4884977;29;20036;-94
2022/10/21 08:26:58;;;;;;;10.93;7.75;;;;;;;14.25;87.83;100605.47;4887110;29;20052;-94
2022/10/21 08:29:24;;;;;;;13.38;7.53;;;;;;;14.19;87.05;100599.69;4886204;29;20499;-94
2022/10/21 08:31:49;;;;;;;13.48;7.63;;;;;;;14.17;86.95;100615.69;4885090;29;20441;-94
2022/10/21 08:34:15;;;;;;;12.13;7.60;;;;;;;14.20;87.97;100635.94;4899902;29;20036;-94
2022/10/21 08:36:40;;;;;;;13.63;7.00;;;;;;;14.22;87.52;100637.59;4886291;29;20036;-95
2022/10/21 08:39:06;;;;;;;14.15;8.65;;;;;;;14.14;87.62;100610.59;4902185;29;20391;-95
2022/10/21 08:42:03;;;;;;;9.65;7.00;;;;;;;14.28;87.47;100625.72;4889506;29;20032;-94
2022/10/21 08:44:38;;;;;;;12.73;8.10;;;;;;;14.24;87.92;100633.03;4852037;29;20129;-93
2022/10/21 08:47:32;;;;;;;13.00;8.27;;;;;;;14.29;87.55;100638.91;4883235;29;20033;-94
2022/10/21 08:50:11;;;;;;;12.30;8.07;;;;;;;14.26;87.46;100628.47;4882869;29;20073;-94
2022/10/21 08:52:39;;;;;;;11.85;7.60;;;;;;;14.27;87.89;100639.97;4881959;29;20028;-95
2022/10/21 08:55:11;;;;;;;11.38;6.72;;;;;;;14.24;87.50;100625.03;4881775;29;20428;-94
2022/10/21 08:57:36;;;;;;;15.48;8.18;;;;;;;14.34;87.84;100646.63;4898185;29;20024;-93
2022/10/21 09:00:13;;;;;;;12.43;7.90;;;;;;;14.30;87.88;100635.31;4881677;29;20054;-93
2022/10/21 09:02:58;;;;;;;11.25;7.13;;;;;;;14.31;87.72;100628.19;4881425;29;20477;-94
2022/10/21 09:05:35;;;;;;;13.93;8.63;;;;;;;14.36;88.17;100646.53;4881982;29;20032;-94
2022/10/21 09:08:22;;;;;;;11.82;8.25;;;;;;;14.42;88.16;100654.16;4881306;29;20035;-94
2022/10/21 09:10:58;;;;;;;9.63;7.22;;;;;;;14.36;88.03;100657.16;4873916;29;20029;-94
2022/10/21 09:14:00;;;;;;;17.00;8.73;;;;;;;14.41;88.07;100655.09;4881026;29;20061;-94
2022/10/21 09:16:34;;;;;;;11.25;8.00;;;;;;;14.47;88.51;100654.75;4881438;29;20037;-93
2022/10/21 09:19:14;;;;;;;17.20;7.97;;;;;;;14.53;88.50;100651.75;4881274;29;20032;-93
2022/10/21 09:21:55;;;;;;;10.65;6.90;;;;;;;14.64;88.15;100643.13;4881168;29;20480;-94
2022/10/21 09:24:34;;;;;;;14.13;6.45;;;;;;;14.72;88.57;100643.53;4881362;29;20056;-94
2022/10/21 09:27:02;;;;;;;11.27;5.53;;;;;;;14.75;88.03;100622.06;4881283;29;20103;-94
2022/10/21 09:29:32;;;;;;;14.30;4.30;;;;;;;14.88;88.03;100612.38;4881034;29;20028;-94
2022/10/21 09:32:03;;;;;;;9.30;4.50;;;;;;;15.07;87.60;100629.88;4913125;29;20032;-94
2022/10/21 09:34:46;;;;;;;5.80;2.90;;;;;;;15.22;86.84;100628.91;4916751;29;20020;-93
2022/10/21 09:37:25;;;;;;;8.45;2.90;;;;;;;15.32;86.41;100628.22;4902221;29;20490;-94
2022/10/21 09:40:15;;;;;;;5.18;3.20;;;;;;;15.51;87.04;100641.22;4903022;29;20028;-94
2022/10/21 09:42:40;;;;;;;6.00;3.30;;;;;;;15.62;88.00;100637.88;4920555;29;20056;-94
2022/10/21 09:45:34;;;;;;;5.68;3.08;;;;;;;15.75;87.76;100638.81;4903336;29;20546;-94
2022/10/21 09:48:12;;;;;;;4.90;2.85;;;;;;;15.82;87.18;100640.13;4919088;29;20518;-93
2022/10/21 09:50:38;;;;;;;4.20;2.67;;;;;;;15.87;87.41;100631.00;4902757;29;20027;-94
2022/10/21 09:53:10;;;;;;;4.07;2.95;;;;;;;15.88;87.75;100633.53;4902607;29;20032;-93
2022/10/21 09:55:38;;;;;;;5.35;2.72;;;;;;;15.92;87.66;100620.88;4919699;29;20028;-94
2022/10/21 09:58:03;;;;;;;5.72;2.80;;;;;;;16.00;87.76;100629.22;4902726;29;20035;-93
2022/10/21 10:00:49;;;;;;;8.27;3.55;;;;;;;16.07;87.24;100630.50;4898668;29;20480;-94
2022/10/21 10:03:42;;;;;;;3.60;2.42;;;;;;;16.18;87.47;100633.34;4883799;29;20024;-93
2022/10/21 10:06:08;;;;;;;6.45;2.83;;;;;;;16.21;86.56;100638.44;4897490;29;20088;-93
2022/10/21 10:08:46;;;;;;;7.22;2.97;;;;;;;16.30;86.43;100653.00;4883647;29;20033;-93
2022/10/21 10:11:15;;;;;;;7.55;4.40;;;;;;;16.26;86.18;100643.47;4900843;29;20443;-93
2022/10/21 10:13:45;;;;;;;7.35;3.65;;;;;;;16.41;86.49;100652.25;4900438;29;20069;-95
2022/10/21 10:16:14;;;;;;;7.35;4.32;;;;;;;16.46;86.38;100651.00;4883750;29;20043;-93
2022/10/21 10:18:41;;;;;;;7.43;4.00;;;;;;;16.48;86.10;100642.91;4883613;29;20039;-94
2022/10/21 10:21:12;;;;;;;7.55;4.28;;;;;;;16.57;85.38;100644.94;4883921;29;20480;-93
2022/10/21 10:23:44;;;;;;;11.50;3.80;;;;;;;16.69;85.47;100653.91;4883683;29;20504;-94
2022/10/21 10:26:10;;;;;;;9.02;4.38;;;;;;;16.81;84.74;100659.28;4883904;29;20552;-93
2022/10/21 10:28:36;;;;;;;11.45;3.92;;;;;;;16.98;84.82;100651.94;4883732;29;20028;-94
2022/10/21 10:31:02;;;;;;;7.70;3.78;;;;;;;17.31;83.74;100662.91;4900223;29;20060;-94
2022/10/21 10:33:34;;;;;;;9.27;3.75;;;;;;;17.78;83.17;100661.34;4900474;29;20021;-93
2022/10/21 10:36:01;;;;;;;;;;;;;;;18.18;83.14;100666.41;4883854;29;20049;-95
2022/10/21 10:38:32;;;;;;;5.88;3.70;;;;;;;18.32;78.92;100663.53;4883468;29;20355;-95
2022/10/21 10:41:09;;;;;;;5.32;4.00;;;;;;;18.48;79.08;100654.38;4883763;29;20429;-95
2022/10/21 10:43:45;;;;;;;8.70;4.15;;;;;;;18.66;78.14;100658.31;4883265;29;20024;-95
2022/10/21 10:46:21;;;;;;;6.28;4.45;;;;;;;18.89;77.04;100653.91;4900150;29;20028;-93
2022/10/21 10:48:50;;;;;;;5.82;4.05;;;;;;;19.30;75.08;100657.78;4882563;29;20468;-94
2022/10/21 10:51:26;;;;;;;7.15;3.35;;;;;;;19.75;73.72;100661.31;4883744;29;20028;-94
2022/10/21 10:54:14;;;;;;;7.35;3.67;;;;;;;19.53;73.38;100664.00;4885007;29;20412;-93
2022/10/21 10:56:59;;;;;;;5.05;3.08;;;;;;;19.97;71.52;100656.91;4883342;29;20033;-94
2022/10/21 10:59:38;;;;;;;6.57;3.28;;;;;;;20.27;71.17;100654.31;4883842;29;20060;-95
2022/10/21 11:02:06;;;;;;;10.32;3.38;;;;;;;21.25;67.73;100659.38;4882918;29;20020;-94
2022/10/21 11:04:56;;;;;;;8.25;3.17;;;;;;;22.65;65.86;100650.28;4900173;29;20033;-95
2022/10/21 11:07:36;;;;;;;5.63;2.95;;;;;;;23.13;59.56;100644.81;4883072;29;20472;-94
2022/10/21 11:10:27;;;;;;;5.10;2.65;;;;;;;23.98;58.73;100648.22;4883414;29;20544;-94
2022/10/21 11:12:52;;;;;;;7.15;2.05;;;;;;;25.23;55.50;100649.91;4883162;29;20025;-94
2022/10/21 11:15:25;;;;;;;4.20;2.20;;;;;;;25.52;52.37;100634.16;4900076;29;20476;-95
2022/10/21 11:18:00;;;;;;;4.70;2.20;;;;;;;24.51;54.70;100635.72;4899579;29;20391;-94
2022/10/21 11:20:28;;;;;;;5.40;2.20;;;;;;;23.96;52.88;100627.75;4899895;29;20385;-94
2022/10/21 11:23:13;;;;;;;4.65;2.30;;;;;;;25.23;54.97;100617.44;4882850;29;20031;-94
2022/10/21 11:25:44;;;;;;;4.15;2.00;;;;;;;24.59;53.16;100619.59;4899990;29;20096;-94
2022/10/21 11:28:10;;;;;;;3.92;1.90;;;;;;;24.76;51.63;100632.22;4899698;29;20025;-94